Larkfield, United Kingdom
Current Conditions -  °F | °C
As of 10:20 AM on Monday 26 Jan 2015 (Local Time) from EGKB Reporting Station
Drizzle Drizzle  
Wind Chill: 44°   Ceiling: 600
Heat Index: 48°   Visibility: 6mi
Dew Point: 45°   Wind: 10mph
Humidity: 87%   Direction: 280°W
Pressure: 30.18"   Gusts: NA
Location:  51.29°N, 0.43°E
Report Text: EGKB 261020Z 28009KT 250V320 9000 -DZ BKN006 09/07 Q1022
Loading
Personal Weather Stations






























Interactive Weather Map New forecast layout! Learn more

10-Day Weather Forecast

Advertisements
Track Severe Weather on mobile